Online Now
Guests 2
Members   0

24/7 FSX Server
IP: 97.89.8.204
@ KSFO until 8/17/18



Information and tools for flight simulation use only - NOT for real avaition

File Flight Plans Here

KSFO 160556Z 26011KT 10SM FEW005 SCT010 16/13 A2996 RMK AO2 SLP145 T01610133 10206 20161 51009
Aviation Digital Data Service (ADDS)



Other FSX servers